Relevés horaires Beauvechain (Belgique)


Relevés horaires à Beauvechain - Mardi 07 Juill. 2020
Heure UTC1 Température [°C] Vent [km/h] Hum. [%] Pres.4 [hPa] Visi. [Km] Nébu. [octa] Préc.5 [mm] Cond.
2m. Res. Ros. Dir.2 Vit. Moy. Raf.3
23:00 14.9 14.9 8.6 OSO 7.4 -- 11.1 66 1017.6(-0.3/3h) 20 -- -- Il y a de la pluie faible et continue à la station au moment de l'observation
22:00 16.2 16.2 8.1 O 3.7 -- 13.0 59 1017.7(-0.1/3h) 20 -- -- Il y a de la pluie faible et continue à la station au moment de l'observation
21:00 17.1 17.1 8.8 OSO 7.4 -- 11.1 58 1017.6(-0.4/3h) 20 -- -- --
20:00 17.8 17.8 9.9 O 3.7 -- 3.7 60 1017.7(-0.5/3h) 20 -- -- --
19:00 18.2 18.2 10.8 NNO 1.9 -- 5.6 62 1017.7(-0.9/3h) 20 -- -- --
18:00 19.2 19.2 10.0 NNO 1.9 -- 20.4 55 1018(-1.1/3h) 20 -- -- --
17:00 19.5 19.5 8.8 ONO 3.7 -- 9.3 50 1018.2(-1.3/3h) 20 -- -- --
16:00 19.5 19.5 8.7 NO 5.6 -- 11.1 50 1018.7(-1.2/3h) 20 -- -- --
15:00 19.9 19.9 8.1 ONO 5.6 -- 20.4 46 1019.2(-0.9/3h) 20 -- -- --
14:00 19.5 19.5 7.7 OSO 7.4 -- 18.5 46 1019.7(-0.8/3h) 20 4/8 -- --
13:00 19.6 19.6 7.9 ONO 7.4 -- 20.4 47 1019.8(-0.9/3h) 20 5/8 -- --
12:00 20.7 20.7 7.9 O 7.4 -- 16.7 44 1020.1(-0.9/3h) 20 4/8 -- --
11:00 18.6 18.6 8.2 OSO 9.3 -- 14.8 51 1020.6(-0.5/3h) 20 5/8 -- --
10:00 17.9 17.9 9.4 OSO 7.4 -- 14.8 58 1020.8(-0.1/3h) 20 5/8 -- --
09:00 18.9 18.9 10.2 OSO 7.4 -- 14.8 57 1021.1(-0.1/3h) 20 3/8 -- --
08:00 16.7 16.7 10.8 OSO 7.4 -- 11.1 68 1021.2(-0.2/3h) 20 2/8 -- --
07:00 14.5 14.4 10.8 SO 7.4 -- 9.3 78 1021.2(-0.2/3h) 20 3/8 -- --
06:00 12.9 12.9 10.4 SO 5.6 -- 7.4 85 1021.6(-0.4/3h) 20 5/8 -- --
05:00 11.8 11.8 9.5 SO 3.7 -- 5.6 86 1021.7(-0.4/3h) 20 -- -- --
04:00 11.8 11.6 8.8 SSO 5.6 -- 5.6 82 1021.6(-0.8/3h) 20 -- -- --
03:00 11.5 11.5 8.4 SSO 3.7 -- 5.6 81 1022.1(-0.5/3h) 20 -- -- --
02:00 12.1 12.1 8.6 SSO 3.7 -- 5.6 79 1022.2(-0.5/3h) 20 -- -- --
01:00 12.5 12.5 8.6 SSO 3.7 -- 3.7 77 1022.3(-0.3/3h) 20 -- -- --
00:00 13.5 13.5 9.0 NNO 1.9 -- 13.0 74 1022.6(0.1/3h) 20 -- -- --

1 Coordinated Universal Time. Actuellement il est 07:00 locale et 05:00 UTC.

2 Le vent souffle depuis la direction indiquée vers la direction oposée.

3 Les rafales max. sont disponible 40 min après l'heure du relevé.

4 Pour les stations d'altitude (plus de 600m) le géopotentiel du niveau le plus proche de la pression obligatoire est indiqué.

5 Les stations disposant d'un diffuseur peuvent indiquer "trace". Cela signifie que des précipitations ont touchés le sol mais que la quantité est inférieure à 0.1 mm.

Récapitulatif de la journée
Température [°C] Vent [km/h] Ensoleillement4 [h] Precipitations totale5 [mm] Pression [Hpa]
Min1 Max.2 Moy.3 Max. Min Max.
11.5 21.5 0 20.4 0 h 0 min 0 1017.6 1022.6

1 Température minimale relevée entre 18:00 UTC la veille et 18:00 UTC le jour donné.

2 Température maximale relevée entre 06:00 UTC le jour donné et 06:00 UTC le lendemain.

3 Vent moyen de la journée basé sur les relevés horaires.

4 Ensoleillement en heures relevé entre 06:00 UTC la veille et 06:00 UTC le jour donné.

5 Précipitations totales tombées entre 06:00 UTC la jour donné et 06:00 UTC le lendemain.

Graphiques horaires